createdAt,value
2023-04-15T16:55:00.422Z,8.47
2023-04-15T16:56:04.030Z,8.47
2023-04-15T16:57:07.238Z,7.99
2023-04-15T16:58:10.581Z,8.06
2023-04-15T16:59:13.871Z,8.08
2023-04-15T17:00:17.036Z,8.10
2023-04-15T17:01:22.169Z,8.10
2023-04-15T17:02:25.239Z,8.13
2023-04-15T17:03:28.652Z,7.98
2023-04-15T17:04:33.349Z,7.97
2023-04-15T17:05:36.606Z,8.32
2023-04-15T17:06:39.662Z,8.47
2023-04-15T17:07:42.799Z,8.41
2023-04-15T17:08:46.362Z,8.27
2023-04-15T17:09:49.632Z,8.28
2023-04-15T17:10:52.796Z,8.11
2023-04-15T17:11:56.304Z,8.13
2023-04-15T17:13:00.228Z,8.22
2023-04-15T17:14:03.684Z,8.20
2023-04-15T17:15:08.239Z,8.31
2023-04-15T17:16:11.343Z,8.20
2023-04-15T17:17:17.007Z,8.25
2023-04-15T17:18:20.353Z,8.15
2023-04-15T17:19:23.897Z,8.13
2023-04-15T17:20:27.657Z,8.23
2023-04-15T17:21:32.243Z,8.05
2023-04-15T17:22:35.603Z,8.12
2023-04-15T17:23:39.221Z,8.23
2023-04-15T17:24:42.455Z,8.11
2023-04-15T17:25:45.639Z,8.07
2023-04-15T17:26:48.411Z,8.06
2023-04-15T17:27:52.668Z,8.07
2023-04-15T17:28:56.112Z,8.02
2023-04-15T17:29:59.799Z,8.10
2023-04-15T17:31:04.624Z,8.18
2023-04-15T17:32:07.976Z,8.03
2023-04-15T17:34:01.610Z,7.94
2023-04-15T17:34:50.036Z,7.96
2023-04-15T17:35:54.653Z,7.93
2023-04-15T17:36:59.064Z,7.93
2023-04-15T17:38:02.939Z,7.96
2023-04-15T17:39:07.149Z,8.02
2023-04-15T17:40:12.101Z,7.87
2023-04-15T17:41:15.992Z,7.81
2023-04-15T17:42:19.808Z,7.81
2023-04-15T17:43:23.440Z,7.89
2023-04-15T17:44:27.197Z,7.84
2023-04-15T17:45:31.323Z,7.84
2023-04-15T17:46:35.958Z,7.94
2023-04-15T17:47:42.541Z,7.93
2023-04-15T17:48:47.356Z,7.92
2023-04-15T17:49:51.611Z,7.91
2023-04-15T17:50:55.153Z,8.07
2023-04-15T17:51:58.682Z,7.95
2023-04-15T17:53:02.949Z,7.95
2023-04-15T17:54:08.933Z,7.92
2023-04-15T17:55:13.093Z,7.91
2023-04-15T17:56:16.794Z,8.21
2023-04-15T17:57:20.043Z,8.05
2023-04-15T17:58:24.728Z,7.96
2023-04-15T17:59:28.639Z,7.83
2023-04-15T18:00:32.224Z,7.79
2023-04-15T18:01:36.542Z,7.93
2023-04-15T18:02:40.166Z,7.81
2023-04-15T18:03:44.644Z,7.76
2023-04-15T18:04:49.049Z,7.72
2023-04-15T18:05:53.820Z,7.58
2023-04-15T18:06:58.120Z,7.56
2023-04-15T18:08:02.008Z,7.55
2023-04-15T18:09:05.718Z,7.57
2023-04-15T18:10:09.944Z,7.60
2023-04-15T18:11:13.879Z,7.54
2023-04-15T18:12:17.781Z,7.44
2023-04-15T18:13:21.280Z,7.43
2023-04-15T18:14:34.338Z,7.42
2023-04-15T18:15:38.951Z,7.45
2023-04-15T18:16:43.341Z,7.50
2023-04-15T18:17:49.541Z,7.43
2023-04-15T18:18:53.147Z,7.47
2023-04-15T18:19:56.815Z,7.34
2023-04-15T18:21:00.599Z,7.27
2023-04-15T18:22:04.779Z,7.24
2023-04-15T18:23:08.262Z,7.12
2023-04-15T18:24:11.853Z,7.25
2023-04-15T18:25:16.131Z,7.23
2023-04-15T18:26:20.021Z,7.22
2023-04-15T18:27:23.670Z,7.16
2023-04-15T18:28:27.129Z,7.15
2023-04-15T18:29:32.020Z,7.02
2023-04-15T18:30:36.178Z,7.02
2023-04-15T18:31:39.896Z,7.01
2023-04-15T18:32:43.159Z,7.02
2023-04-15T18:33:46.614Z,7.04
2023-04-15T18:34:50.243Z,7.02
2023-04-15T18:35:53.864Z,7.05
2023-04-15T18:36:59.436Z,7.14
2023-04-15T18:38:03.321Z,7.06
2023-04-15T18:39:07.319Z,6.98
2023-04-15T18:40:11.354Z,7.28
2023-04-15T18:41:15.879Z,7.28
2023-04-15T18:42:20.574Z,7.18
2023-04-15T18:43:25.178Z,7.17
2023-04-15T18:44:29.735Z,7.22
2023-04-15T18:45:32.997Z,7.02
2023-04-15T18:46:36.734Z,6.84
2023-04-15T18:47:40.862Z,6.70
2023-04-15T18:48:44.352Z,6.76
2023-04-15T18:49:48.119Z,6.74
2023-04-15T18:50:54.702Z,6.71
2023-04-15T18:51:58.580Z,6.61
2023-04-15T18:53:03.092Z,6.64
2023-04-15T18:54:07.001Z,6.58
2023-04-15T18:55:11.028Z,6.55
2023-04-15T18:56:14.906Z,6.53
2023-04-15T18:57:24.597Z,6.62
2023-04-15T18:59:19.391Z,6.60
2023-04-15T19:00:01.744Z,6.56
2023-04-15T19:01:05.958Z,6.52
2023-04-15T19:02:09.762Z,6.59
2023-04-15T19:03:13.876Z,6.55
2023-04-15T19:04:17.905Z,6.59
2023-04-15T19:05:22.131Z,6.52
2023-04-15T19:06:27.190Z,6.48
2023-04-15T19:07:33.924Z,6.56
2023-04-15T19:08:39.054Z,6.54
2023-04-15T19:09:43.154Z,6.28
2023-04-15T19:10:47.739Z,6.12
2023-04-15T19:11:51.452Z,6.11
2023-04-15T19:12:55.846Z,6.08
2023-04-15T19:13:59.272Z,6.12
2023-04-15T19:15:04.101Z,6.18
2023-04-15T19:16:07.858Z,6.16
2023-04-15T19:17:11.793Z,6.23
2023-04-15T19:18:16.036Z,6.04
2023-04-15T19:19:19.774Z,6.08
2023-04-15T19:20:23.263Z,6.09
2023-04-15T19:21:27.238Z,6.21
2023-04-15T19:22:31.369Z,6.12
2023-04-15T19:23:34.543Z,6.11
2023-04-15T19:24:37.672Z,6.22
2023-04-15T19:25:41.347Z,6.99
2023-04-15T19:26:45.230Z,7.41
2023-04-15T19:27:49.855Z,7.17
2023-04-15T19:28:59.202Z,6.98
2023-04-15T19:30:04.177Z,6.81
2023-04-15T19:31:08.174Z,6.74
2023-04-15T19:32:14.706Z,6.58
2023-04-15T19:33:18.860Z,6.60
2023-04-15T19:34:22.756Z,6.56
2023-04-15T19:35:26.587Z,6.47
2023-04-15T19:36:30.560Z,6.43
2023-04-15T19:37:34.312Z,6.43
2023-04-15T19:38:39.834Z,6.26
2023-04-15T19:39:44.022Z,6.24
2023-04-15T19:40:48.915Z,6.25
2023-04-15T19:41:57.412Z,6.22
2023-04-15T19:43:01.308Z,6.22
2023-04-15T19:44:05.545Z,6.15
2023-04-15T19:45:10.293Z,6.24
2023-04-15T19:46:14.223Z,6.28
2023-04-15T19:47:20.360Z,6.13
2023-04-15T19:48:27.883Z,6.14
2023-04-15T19:49:31.383Z,6.18
2023-04-15T19:50:35.097Z,6.10
2023-04-15T19:51:39.002Z,6.21
2023-04-15T19:52:45.942Z,6.23
2023-04-15T19:53:50.534Z,6.18
2023-04-15T19:54:53.975Z,6.19
2023-04-15T19:55:57.302Z,6.18
2023-04-15T19:57:01.814Z,6.25
2023-04-15T19:58:06.165Z,6.20
2023-04-15T19:59:10.082Z,6.23
2023-04-15T20:00:14.063Z,6.41
2023-04-15T20:01:17.612Z,6.37
2023-04-15T20:02:21.507Z,6.35
2023-04-15T20:03:25.996Z,6.37
2023-04-15T20:04:30.234Z,6.32
2023-04-15T20:05:34.305Z,6.49
2023-04-15T20:06:39.324Z,6.33
2023-04-15T20:07:43.346Z,6.33
2023-04-15T20:08:46.674Z,6.33
2023-04-15T20:09:50.971Z,6.33
2023-04-15T20:10:55.383Z,6.35
2023-04-15T20:12:47.476Z,6.42
2023-04-15T20:13:23.120Z,6.46
2023-04-15T20:14:28.080Z,6.41
2023-04-15T20:15:32.148Z,6.32
2023-04-15T20:16:39.065Z,6.36
2023-04-15T20:17:42.899Z,6.42
2023-04-15T20:18:46.213Z,6.37
2023-04-15T20:19:50.145Z,6.33
2023-04-15T20:20:55.045Z,6.37
2023-04-15T20:21:58.379Z,6.41
2023-04-15T20:23:01.816Z,6.47
2023-04-15T20:24:06.611Z,6.41
2023-04-15T20:25:10.657Z,6.37
2023-04-15T20:26:13.904Z,6.49
2023-04-15T20:27:17.190Z,6.48
2023-04-15T20:28:21.617Z,6.43
2023-04-15T20:29:25.993Z,6.40
2023-04-15T20:30:29.615Z,6.33
2023-04-15T20:31:38.097Z,6.30
2023-04-15T20:32:44.724Z,6.32
2023-04-15T20:33:48.292Z,6.32
2023-04-15T20:34:52.005Z,6.28
2023-04-15T20:35:55.697Z,6.28
2023-04-15T20:36:59.065Z,6.33
2023-04-15T20:38:04.695Z,6.43
2023-04-15T20:39:08.486Z,6.42
2023-04-15T20:40:12.490Z,6.49
2023-04-15T20:41:16.679Z,6.54
2023-04-15T20:42:21.014Z,6.52
2023-04-15T20:43:24.950Z,6.39
2023-04-15T20:44:38.273Z,6.26
2023-04-15T20:45:41.823Z,6.20
2023-04-15T20:46:45.075Z,6.25
2023-04-15T20:47:48.501Z,6.24
2023-04-15T20:48:51.784Z,6.22
2023-04-15T20:49:55.140Z,6.20
2023-04-15T20:50:58.353Z,6.20
2023-04-15T20:52:07.485Z,6.20
2023-04-15T20:53:10.478Z,6.35
2023-04-15T20:54:13.407Z,6.35
2023-04-15T20:55:17.162Z,6.33
2023-04-15T20:56:20.563Z,6.23
2023-04-15T20:57:24.894Z,6.18
2023-04-15T20:58:28.537Z,6.22
2023-04-15T20:59:33.048Z,6.21
2023-04-15T21:00:36.375Z,6.27
2023-04-15T21:01:40.587Z,6.28
2023-04-15T21:02:43.753Z,6.33
2023-04-15T21:03:47.413Z,6.29
2023-04-15T21:04:50.580Z,6.29
2023-04-15T21:05:53.463Z,6.34
2023-04-15T21:06:56.900Z,6.30
2023-04-15T21:07:59.975Z,6.38
2023-04-15T21:09:03.350Z,6.27
2023-04-15T21:10:07.063Z,6.27
2023-04-15T21:11:10.357Z,6.21
2023-04-15T21:12:13.512Z,6.33
2023-04-15T21:13:17.944Z,6.31
2023-04-15T21:14:20.962Z,6.20
2023-04-15T21:15:23.840Z,6.15
2023-04-15T21:16:27.427Z,6.20
2023-04-15T21:17:30.492Z,6.26
2023-04-15T21:18:33.378Z,6.23
2023-04-15T21:19:38.386Z,6.24
2023-04-15T21:20:41.348Z,6.20
2023-04-15T21:21:44.333Z,6.16
2023-04-15T21:22:47.177Z,6.17
2023-04-15T21:23:50.027Z,6.19
2023-04-15T21:24:52.918Z,6.27
2023-04-15T21:25:56.461Z,6.37
2023-04-15T21:26:59.470Z,6.42
2023-04-15T21:28:03.910Z,6.39
2023-04-15T21:29:09.452Z,6.45
2023-04-15T21:30:14.333Z,6.34
2023-04-15T21:31:17.160Z,6.29
2023-04-15T21:32:20.105Z,6.27
2023-04-15T21:33:23.407Z,6.19
2023-04-15T21:34:26.299Z,6.21
2023-04-15T21:35:30.512Z,6.18
2023-04-15T21:36:34.086Z,6.20
2023-04-15T21:37:38.179Z,6.29
2023-04-15T21:38:41.296Z,6.25
2023-04-15T21:39:44.235Z,6.23
2023-04-15T21:40:49.662Z,6.32
2023-04-15T21:41:52.598Z,6.21
2023-04-15T21:42:55.616Z,6.27
2023-04-15T21:43:58.662Z,6.20
2023-04-15T21:45:01.705Z,6.17
2023-04-15T21:46:23.647Z,6.24
2023-04-15T21:47:28.058Z,6.17
2023-04-15T21:48:31.936Z,6.15
2023-04-15T21:49:34.985Z,6.19
2023-04-15T21:50:38.506Z,6.14
2023-04-15T21:51:41.563Z,6.18
2023-04-15T21:52:44.396Z,6.15
2023-04-15T21:53:47.480Z,6.13
2023-04-15T21:54:50.469Z,6.17
2023-04-15T21:55:53.396Z,6.20
2023-04-15T21:56:57.159Z,6.27
2023-04-15T21:58:00.372Z,6.25
2023-04-15T21:59:03.475Z,6.27
2023-04-15T22:00:07.941Z,6.28
2023-04-15T22:01:11.013Z,6.33
2023-04-15T22:02:13.979Z,6.24
2023-04-15T22:03:17.235Z,6.23
2023-04-15T22:04:20.561Z,6.26
2023-04-15T22:05:23.587Z,6.37
2023-04-15T22:06:27.298Z,6.31
2023-04-15T22:07:30.175Z,6.44
2023-04-15T22:08:38.746Z,6.43
2023-04-15T22:09:48.012Z,6.30
2023-04-15T22:10:50.877Z,6.27
2023-04-15T22:11:53.903Z,6.33
2023-04-15T22:13:03.304Z,6.32
2023-04-15T22:14:06.301Z,6.31
2023-04-15T22:15:09.556Z,6.27
2023-04-15T22:16:12.451Z,6.28
2023-04-15T22:17:15.319Z,6.27
2023-04-15T22:18:18.163Z,6.32
2023-04-15T22:19:21.074Z,6.41
2023-04-15T22:20:23.901Z,6.55
2023-04-15T22:21:27.039Z,6.50
2023-04-15T22:22:43.375Z,6.43
2023-04-15T22:23:48.789Z,6.49
2023-04-15T22:24:51.670Z,6.38
2023-04-15T22:25:54.510Z,6.42
2023-04-15T22:26:59.281Z,6.39
2023-04-15T22:28:02.202Z,6.32
2023-04-15T22:29:05.414Z,6.30
2023-04-15T22:30:08.862Z,6.29
2023-04-15T22:31:11.877Z,6.33
2023-04-15T22:32:14.707Z,6.31
2023-04-15T22:33:17.519Z,6.37
2023-04-15T22:34:21.761Z,6.34
2023-04-15T22:35:24.565Z,6.29
2023-04-15T22:36:28.094Z,6.29
2023-04-15T22:37:30.977Z,6.25
2023-04-15T22:38:33.848Z,6.27
2023-04-15T22:39:36.812Z,6.30
2023-04-15T22:40:39.675Z,6.28
2023-04-15T22:41:42.616Z,6.31
2023-04-15T22:42:46.574Z,6.36
2023-04-15T22:43:49.384Z,6.38
2023-04-15T22:44:52.372Z,6.34
2023-04-15T22:45:55.524Z,6.37
2023-04-15T22:46:58.536Z,6.41
2023-04-15T22:48:02.839Z,6.37
2023-04-15T22:49:09.848Z,6.42
2023-04-15T22:50:13.550Z,6.44
2023-04-15T22:51:22.225Z,6.41
2023-04-15T22:52:30.611Z,6.46
2023-04-15T22:53:34.448Z,6.49
2023-04-15T22:54:37.892Z,6.42
2023-04-15T22:55:44.453Z,6.42
2023-04-15T22:56:47.316Z,6.46
2023-04-15T22:57:50.246Z,6.50
2023-04-15T22:58:53.215Z,6.56
2023-04-15T22:59:56.326Z,6.56
2023-04-15T23:00:59.397Z,6.50
2023-04-15T23:02:02.656Z,6.52
2023-04-15T23:03:06.136Z,6.52
2023-04-15T23:04:25.109Z,6.56
2023-04-15T23:05:30.472Z,6.55
2023-04-15T23:06:33.585Z,6.53
2023-04-15T23:07:36.558Z,6.52
2023-04-15T23:08:39.815Z,6.32
2023-04-15T23:09:42.798Z,6.41
2023-04-15T23:10:45.770Z,6.32
2023-04-15T23:11:48.698Z,6.44
2023-04-15T23:12:51.379Z,6.47
2023-04-15T23:13:54.033Z,6.51
2023-04-15T23:14:56.675Z,6.55
2023-04-15T23:15:59.476Z,6.47
2023-04-15T23:17:02.263Z,6.50
2023-04-15T23:18:05.218Z,6.46
2023-04-15T23:19:08.202Z,6.48
2023-04-15T23:20:12.301Z,6.48
2023-04-15T23:21:15.090Z,6.41
2023-04-15T23:22:18.885Z,6.47
2023-04-15T23:23:22.366Z,6.41
2023-04-15T23:24:25.074Z,6.37
2023-04-15T23:25:27.743Z,6.35
2023-04-15T23:26:31.292Z,6.37
2023-04-15T23:27:34.033Z,6.32
2023-04-15T23:28:36.644Z,6.43
2023-04-15T23:29:39.442Z,6.45
2023-04-15T23:30:42.702Z,6.38
2023-04-15T23:31:45.503Z,6.41
2023-04-15T23:32:48.606Z,6.46
2023-04-15T23:33:51.845Z,6.47
2023-04-15T23:34:54.515Z,6.45
2023-04-15T23:35:57.248Z,6.43
2023-04-15T23:37:00.091Z,6.33
2023-04-15T23:38:02.924Z,6.31
2023-04-15T23:39:05.646Z,6.24
2023-04-15T23:40:08.827Z,6.15
2023-04-15T23:41:12.255Z,6.25
2023-04-15T23:42:15.091Z,6.24
2023-04-15T23:43:17.752Z,6.13
2023-04-15T23:44:20.700Z,6.12
2023-04-15T23:45:23.472Z,6.17
2023-04-15T23:46:26.419Z,6.30
2023-04-15T23:47:29.661Z,6.37
2023-04-15T23:48:32.867Z,6.28
2023-04-15T23:49:36.822Z,6.24
2023-04-15T23:50:40.316Z,6.22
2023-04-15T23:51:42.927Z,6.27
2023-04-15T23:52:46.172Z,6.21
2023-04-15T23:53:53.283Z,6.13
2023-04-15T23:54:56.014Z,5.98
2023-04-15T23:55:58.697Z,5.99
2023-04-15T23:57:01.676Z,5.99
2023-04-15T23:58:04.523Z,6.03
2023-04-15T23:59:07.433Z,6.04
